sensor_id;sensor_type;location;lat;lon;timestamp;temperature;humidity
12291;DHT22;6208;48.956;9.076;2023-04-25T00:00:11;10.20;99.90
12291;DHT22;6208;48.956;9.076;2023-04-25T00:02:56;10.10;99.90
12291;DHT22;6208;48.956;9.076;2023-04-25T00:05:40;10.10;99.90
12291;DHT22;6208;48.956;9.076;2023-04-25T00:08:25;10.10;99.90
12291;DHT22;6208;48.956;9.076;2023-04-25T00:11:08;10.10;99.90
12291;DHT22;6208;48.956;9.076;2023-04-25T00:13:53;10.10;99.90
12291;DHT22;6208;48.956;9.076;2023-04-25T00:16:37;10.20;99.90
12291;DHT22;6208;48.956;9.076;2023-04-25T00:19:23;10.30;99.90
12291;DHT22;6208;48.956;9.076;2023-04-25T00:22:07;10.30;99.90
12291;DHT22;6208;48.956;9.076;2023-04-25T00:24:51;10.20;99.90
12291;DHT22;6208;48.956;9.076;2023-04-25T00:27:37;10.30;99.90
12291;DHT22;6208;48.956;9.076;2023-04-25T00:30:22;10.20;99.90
12291;DHT22;6208;48.956;9.076;2023-04-25T00:33:07;10.30;99.90
12291;DHT22;6208;48.956;9.076;2023-04-25T00:35:51;10.30;99.90
12291;DHT22;6208;48.956;9.076;2023-04-25T00:38:35;10.20;99.90
12291;DHT22;6208;48.956;9.076;2023-04-25T00:41:19;10.20;99.90
12291;DHT22;6208;48.956;9.076;2023-04-25T00:44:05;10.10;99.90
12291;DHT22;6208;48.956;9.076;2023-04-25T00:46:51;10.10;99.90
12291;DHT22;6208;48.956;9.076;2023-04-25T00:49:36;10.00;99.90
12291;DHT22;6208;48.956;9.076;2023-04-25T00:52:20;10.00;99.90
12291;DHT22;6208;48.956;9.076;2023-04-25T00:55:05;9.80;99.90
12291;DHT22;6208;48.956;9.076;2023-04-25T00:57:50;10.00;99.90
12291;DHT22;6208;48.956;9.076;2023-04-25T01:00:34;9.90;99.90
12291;DHT22;6208;48.956;9.076;2023-04-25T01:03:19;9.80;99.90
12291;DHT22;6208;48.956;9.076;2023-04-25T01:06:04;9.80;99.90
12291;DHT22;6208;48.956;9.076;2023-04-25T01:08:48;9.80;99.90
12291;DHT22;6208;48.956;9.076;2023-04-25T01:11:32;9.70;99.90
12291;DHT22;6208;48.956;9.076;2023-04-25T01:14:17;9.80;99.90
12291;DHT22;6208;48.956;9.076;2023-04-25T01:17:01;9.80;99.90
12291;DHT22;6208;48.956;9.076;2023-04-25T01:19:46;10.00;99.90
12291;DHT22;6208;48.956;9.076;2023-04-25T01:22:32;9.90;99.90
12291;DHT22;6208;48.956;9.076;2023-04-25T01:25:17;10.00;99.90
12291;DHT22;6208;48.956;9.076;2023-04-25T01:28:02;10.00;99.90
12291;DHT22;6208;48.956;9.076;2023-04-25T01:30:46;9.90;99.90
12291;DHT22;6208;48.956;9.076;2023-04-25T01:33:31;9.80;99.90
12291;DHT22;6208;48.956;9.076;2023-04-25T01:36:15;9.70;99.90
12291;DHT22;6208;48.956;9.076;2023-04-25T01:39:00;9.70;99.90
12291;DHT22;6208;48.956;9.076;2023-04-25T01:41:46;9.70;99.90
12291;DHT22;6208;48.956;9.076;2023-04-25T01:44:31;9.80;99.90
12291;DHT22;6208;48.956;9.076;2023-04-25T01:47:15;9.60;99.90
12291;DHT22;6208;48.956;9.076;2023-04-25T01:49:59;9.60;99.90
12291;DHT22;6208;48.956;9.076;2023-04-25T01:52:44;10.00;99.90
12291;DHT22;6208;48.956;9.076;2023-04-25T01:55:28;9.60;99.90
12291;DHT22;6208;48.956;9.076;2023-04-25T01:58:12;9.40;99.90
12291;DHT22;6208;48.956;9.076;2023-04-25T02:00:57;9.40;99.90
12291;DHT22;6208;48.956;9.076;2023-04-25T02:03:41;9.50;99.90
12291;DHT22;6208;48.956;9.076;2023-04-25T02:06:25;9.70;99.90
12291;DHT22;6208;48.956;9.076;2023-04-25T02:09:10;9.80;99.90
12291;DHT22;6208;48.956;9.076;2023-04-25T02:11:54;9.80;99.90
12291;DHT22;6208;48.956;9.076;2023-04-25T02:14:38;9.70;99.90
12291;DHT22;6208;48.956;9.076;2023-04-25T02:17:22;9.80;99.90
12291;DHT22;6208;48.956;9.076;2023-04-25T02:20:07;9.80;99.90
12291;DHT22;6208;48.956;9.076;2023-04-25T02:22:51;9.80;99.90
12291;DHT22;6208;48.956;9.076;2023-04-25T02:25:36;9.80;99.90
12291;DHT22;6208;48.956;9.076;2023-04-25T02:28:20;9.80;99.90
12291;DHT22;6208;48.956;9.076;2023-04-25T02:31:05;9.70;99.90
12291;DHT22;6208;48.956;9.076;2023-04-25T02:33:49;9.70;99.90
12291;DHT22;6208;48.956;9.076;2023-04-25T02:36:33;9.70;99.90
12291;DHT22;6208;48.956;9.076;2023-04-25T02:39:19;9.70;99.90
12291;DHT22;6208;48.956;9.076;2023-04-25T02:42:03;9.70;99.90
12291;DHT22;6208;48.956;9.076;2023-04-25T02:44:47;9.70;99.90
12291;DHT22;6208;48.956;9.076;2023-04-25T02:47:31;9.90;99.90
12291;DHT22;6208;48.956;9.076;2023-04-25T02:52:59;9.70;99.90
12291;DHT22;6208;48.956;9.076;2023-04-25T02:55:44;9.70;99.90
12291;DHT22;6208;48.956;9.076;2023-04-25T02:58:28;9.70;99.90
12291;DHT22;6208;48.956;9.076;2023-04-25T03:01:12;9.80;99.90
12291;DHT22;6208;48.956;9.076;2023-04-25T03:03:57;9.70;99.90
12291;DHT22;6208;48.956;9.076;2023-04-25T03:06:41;9.70;99.90
12291;DHT22;6208;48.956;9.076;2023-04-25T03:09:25;10.50;99.90
12291;DHT22;6208;48.956;9.076;2023-04-25T03:12:09;9.70;99.90
12291;DHT22;6208;48.956;9.076;2023-04-25T03:14:53;10.50;99.90
12291;DHT22;6208;48.956;9.076;2023-04-25T03:17:37;9.70;99.90
12291;DHT22;6208;48.956;9.076;2023-04-25T03:20:21;9.70;99.90
12291;DHT22;6208;48.956;9.076;2023-04-25T03:23:05;9.60;99.90
12291;DHT22;6208;48.956;9.076;2023-04-25T03:25:49;9.50;99.90
12291;DHT22;6208;48.956;9.076;2023-04-25T03:28:33;9.50;99.90
12291;DHT22;6208;48.956;9.076;2023-04-25T03:31:17;9.50;99.90
12291;DHT22;6208;48.956;9.076;2023-04-25T03:34:04;9.40;99.90
12291;DHT22;6208;48.956;9.076;2023-04-25T03:36:48;9.40;99.90
12291;DHT22;6208;48.956;9.076;2023-04-25T03:39:32;9.50;99.90
12291;DHT22;6208;48.956;9.076;2023-04-25T03:42:17;9.40;99.90
12291;DHT22;6208;48.956;9.076;2023-04-25T03:45:01;9.40;99.90
12291;DHT22;6208;48.956;9.076;2023-04-25T03:47:45;9.40;99.90
12291;DHT22;6208;48.956;9.076;2023-04-25T03:50:29;9.30;99.90
12291;DHT22;6208;48.956;9.076;2023-04-25T03:53:13;9.10;99.90
12291;DHT22;6208;48.956;9.076;2023-04-25T03:55:57;9.20;99.90
12291;DHT22;6208;48.956;9.076;2023-04-25T03:58:42;9.10;99.90
12291;DHT22;6208;48.956;9.076;2023-04-25T04:01:26;9.30;99.90
12291;DHT22;6208;48.956;9.076;2023-04-25T04:04:10;9.20;99.90
12291;DHT22;6208;48.956;9.076;2023-04-25T04:06:54;9.20;99.90
12291;DHT22;6208;48.956;9.076;2023-04-25T04:09:38;9.20;99.90
12291;DHT22;6208;48.956;9.076;2023-04-25T04:12:22;9.30;99.90
12291;DHT22;6208;48.956;9.076;2023-04-25T04:15:07;9.40;99.90
12291;DHT22;6208;48.956;9.076;2023-04-25T04:17:52;9.40;99.90
12291;DHT22;6208;48.956;9.076;2023-04-25T04:20:36;9.30;99.90
12291;DHT22;6208;48.956;9.076;2023-04-25T04:23:20;9.20;99.90
12291;DHT22;6208;48.956;9.076;2023-04-25T04:26:05;9.20;99.90
12291;DHT22;6208;48.956;9.076;2023-04-25T04:28:50;9.20;99.90
12291;DHT22;6208;48.956;9.076;2023-04-25T04:31:38;9.40;99.90
12291;DHT22;6208;48.956;9.076;2023-04-25T04:34:25;9.50;99.90
12291;DHT22;6208;48.956;9.076;2023-04-25T04:37:10;9.60;99.90
12291;DHT22;6208;48.956;9.076;2023-04-25T04:39:57;9.50;99.90
12291;DHT22;6208;48.956;9.076;2023-04-25T04:42:42;9.50;99.90
12291;DHT22;6208;48.956;9.076;2023-04-25T04:45:26;9.50;99.90
12291;DHT22;6208;48.956;9.076;2023-04-25T04:48:11;9.20;99.90
12291;DHT22;6208;48.956;9.076;2023-04-25T04:50:58;9.20;99.90
12291;DHT22;6208;48.956;9.076;2023-04-25T04:53:42;9.30;99.90
12291;DHT22;6208;48.956;9.076;2023-04-25T04:56:26;9.40;99.90
12291;DHT22;6208;48.956;9.076;2023-04-25T04:59:10;9.40;99.90
12291;DHT22;6208;48.956;9.076;2023-04-25T05:01:54;9.30;99.90
12291;DHT22;6208;48.956;9.076;2023-04-25T05:04:38;9.30;99.90
12291;DHT22;6208;48.956;9.076;2023-04-25T05:07:22;9.40;99.90
12291;DHT22;6208;48.956;9.076;2023-04-25T05:10:06;9.30;99.90
12291;DHT22;6208;48.956;9.076;2023-04-25T05:12:51;9.40;99.90
12291;DHT22;6208;48.956;9.076;2023-04-25T05:15:35;9.50;99.90
12291;DHT22;6208;48.956;9.076;2023-04-25T05:18:19;9.40;99.90
12291;DHT22;6208;48.956;9.076;2023-04-25T05:21:03;9.40;99.90
12291;DHT22;6208;48.956;9.076;2023-04-25T05:23:48;12.40;99.90
12291;DHT22;6208;48.956;9.076;2023-04-25T05:26:32;9.30;99.90
12291;DHT22;6208;48.956;9.076;2023-04-25T05:29:16;9.30;99.90
12291;DHT22;6208;48.956;9.076;2023-04-25T05:32:00;9.30;99.90
12291;DHT22;6208;48.956;9.076;2023-04-25T05:34:44;9.20;99.90
12291;DHT22;6208;48.956;9.076;2023-04-25T05:37:29;9.10;99.90
12291;DHT22;6208;48.956;9.076;2023-04-25T05:40:14;9.40;99.90
12291;DHT22;6208;48.956;9.076;2023-04-25T05:42:58;9.30;99.90
12291;DHT22;6208;48.956;9.076;2023-04-25T05:45:42;9.50;99.90
12291;DHT22;6208;48.956;9.076;2023-04-25T05:48:26;9.40;99.90
12291;DHT22;6208;48.956;9.076;2023-04-25T05:51:10;9.60;99.90
12291;DHT22;6208;48.956;9.076;2023-04-25T05:53:55;7.80;99.90
12291;DHT22;6208;48.956;9.076;2023-04-25T05:56:39;9.40;99.90
12291;DHT22;6208;48.956;9.076;2023-04-25T05:59:23;9.60;99.90
12291;DHT22;6208;48.956;9.076;2023-04-25T06:02:08;9.70;99.90
12291;DHT22;6208;48.956;9.076;2023-04-25T06:04:52;9.70;99.90
12291;DHT22;6208;48.956;9.076;2023-04-25T06:07:36;9.70;99.90
12291;DHT22;6208;48.956;9.076;2023-04-25T06:10:21;9.70;99.90
12291;DHT22;6208;48.956;9.076;2023-04-25T06:13:05;9.80;99.90
12291;DHT22;6208;48.956;9.076;2023-04-25T06:15:50;9.70;99.90
12291;DHT22;6208;48.956;9.076;2023-04-25T06:18:34;9.70;99.90
12291;DHT22;6208;48.956;9.076;2023-04-25T06:21:18;9.80;99.90
12291;DHT22;6208;48.956;9.076;2023-04-25T06:24:02;9.80;99.90
12291;DHT22;6208;48.956;9.076;2023-04-25T06:26:46;9.90;99.90
12291;DHT22;6208;48.956;9.076;2023-04-25T06:29:32;10.00;99.90
12291;DHT22;6208;48.956;9.076;2023-04-25T06:32:16;10.20;99.90
12291;DHT22;6208;48.956;9.076;2023-04-25T06:35:01;10.20;99.90
12291;DHT22;6208;48.956;9.076;2023-04-25T06:37:46;10.10;99.90
12291;DHT22;6208;48.956;9.076;2023-04-25T06:40:30;10.20;99.90
12291;DHT22;6208;48.956;9.076;2023-04-25T06:43:15;10.20;99.90
12291;DHT22;6208;48.956;9.076;2023-04-25T06:45:59;10.20;99.90
12291;DHT22;6208;48.956;9.076;2023-04-25T06:48:44;10.30;99.90
12291;DHT22;6208;48.956;9.076;2023-04-25T06:51:28;10.30;99.90
12291;DHT22;6208;48.956;9.076;2023-04-25T06:54:14;10.00;99.90
12291;DHT22;6208;48.956;9.076;2023-04-25T06:56:58;10.10;99.90
12291;DHT22;6208;48.956;9.076;2023-04-25T06:59:44;10.10;99.90
12291;DHT22;6208;48.956;9.076;2023-04-25T07:02:29;10.10;99.90
12291;DHT22;6208;48.956;9.076;2023-04-25T07:05:13;10.20;99.90
12291;DHT22;6208;48.956;9.076;2023-04-25T07:07:57;10.30;99.90
12291;DHT22;6208;48.956;9.076;2023-04-25T07:10:41;10.40;99.90
12291;DHT22;6208;48.956;9.076;2023-04-25T07:13:26;10.40;99.90
12291;DHT22;6208;48.956;9.076;2023-04-25T07:16:10;10.50;99.90
12291;DHT22;6208;48.956;9.076;2023-04-25T07:18:54;10.50;99.90
12291;DHT22;6208;48.956;9.076;2023-04-25T07:21:39;10.40;99.90
12291;DHT22;6208;48.956;9.076;2023-04-25T07:24:23;10.60;99.90
12291;DHT22;6208;48.956;9.076;2023-04-25T07:27:07;10.70;99.90
12291;DHT22;6208;48.956;9.076;2023-04-25T07:29:51;10.60;99.90
12291;DHT22;6208;48.956;9.076;2023-04-25T07:32:35;10.60;99.90
12291;DHT22;6208;48.956;9.076;2023-04-25T07:35:19;10.50;99.90
12291;DHT22;6208;48.956;9.076;2023-04-25T07:38:04;10.50;99.90
12291;DHT22;6208;48.956;9.076;2023-04-25T07:40:52;10.20;99.90
12291;DHT22;6208;48.956;9.076;2023-04-25T07:43:37;10.30;99.90
12291;DHT22;6208;48.956;9.076;2023-04-25T07:46:21;10.40;99.90
12291;DHT22;6208;48.956;9.076;2023-04-25T07:49:05;10.40;99.90
12291;DHT22;6208;48.956;9.076;2023-04-25T07:51:49;10.20;99.90
12291;DHT22;6208;48.956;9.076;2023-04-25T07:54:34;10.30;99.90
12291;DHT22;6208;48.956;9.076;2023-04-25T07:57:19;10.30;99.90
12291;DHT22;6208;48.956;9.076;2023-04-25T08:00:04;10.40;99.90
12291;DHT22;6208;48.956;9.076;2023-04-25T08:02:49;10.50;99.90
12291;DHT22;6208;48.956;9.076;2023-04-25T08:05:34;10.70;99.90
12291;DHT22;6208;48.956;9.076;2023-04-25T08:08:19;10.50;99.90
12291;DHT22;6208;48.956;9.076;2023-04-25T08:11:03;10.70;99.90
12291;DHT22;6208;48.956;9.076;2023-04-25T08:13:47;10.80;99.90
12291;DHT22;6208;48.956;9.076;2023-04-25T08:16:31;10.70;99.90
12291;DHT22;6208;48.956;9.076;2023-04-25T08:19:15;10.80;99.90
12291;DHT22;6208;48.956;9.076;2023-04-25T08:21:59;10.70;99.90
12291;DHT22;6208;48.956;9.076;2023-04-25T08:24:43;10.70;99.90
12291;DHT22;6208;48.956;9.076;2023-04-25T08:27:27;10.70;99.90
12291;DHT22;6208;48.956;9.076;2023-04-25T08:30:12;10.70;99.90
12291;DHT22;6208;48.956;9.076;2023-04-25T08:32:56;10.60;99.90
12291;DHT22;6208;48.956;9.076;2023-04-25T08:35:40;10.40;99.90
12291;DHT22;6208;48.956;9.076;2023-04-25T08:38:24;10.40;99.90
12291;DHT22;6208;48.956;9.076;2023-04-25T08:41:11;10.20;99.90
12291;DHT22;6208;48.956;9.076;2023-04-25T08:43:56;10.20;99.90
12291;DHT22;6208;48.956;9.076;2023-04-25T08:46:49;10.10;99.90
12291;DHT22;6208;48.956;9.076;2023-04-25T08:49:34;9.90;99.90
12291;DHT22;6208;48.956;9.076;2023-04-25T08:52:22;10.10;99.90
12291;DHT22;6208;48.956;9.076;2023-04-25T08:55:09;10.20;99.90
12291;DHT22;6208;48.956;9.076;2023-04-25T08:57:54;10.00;99.90
12291;DHT22;6208;48.956;9.076;2023-04-25T09:00:40;10.10;99.90
12291;DHT22;6208;48.956;9.076;2023-04-25T09:03:24;10.50;99.90
12291;DHT22;6208;48.956;9.076;2023-04-25T09:06:11;10.10;99.90
12291;DHT22;6208;48.956;9.076;2023-04-25T09:09:06;10.30;99.90
12291;DHT22;6208;48.956;9.076;2023-04-25T09:11:53;10.30;99.90
12291;DHT22;6208;48.956;9.076;2023-04-25T09:14:38;10.30;99.90
12291;DHT22;6208;48.956;9.076;2023-04-25T09:17:22;10.30;99.90
12291;DHT22;6208;48.956;9.076;2023-04-25T09:20:13;10.50;99.90
12291;DHT22;6208;48.956;9.076;2023-04-25T09:23:02;10.50;99.90
12291;DHT22;6208;48.956;9.076;2023-04-25T09:25:53;10.50;99.90
12291;DHT22;6208;48.956;9.076;2023-04-25T09:28:37;10.50;99.90
12291;DHT22;6208;48.956;9.076;2023-04-25T09:31:22;10.50;99.90
12291;DHT22;6208;48.956;9.076;2023-04-25T09:34:10;10.50;99.90
12291;DHT22;6208;48.956;9.076;2023-04-25T09:37:01;10.40;99.90
12291;DHT22;6208;48.956;9.076;2023-04-25T09:40:20;10.00;99.90
12291;DHT22;6208;48.956;9.076;2023-04-25T09:42:57;9.80;99.90
12291;DHT22;6208;48.956;9.076;2023-04-25T09:45:43;9.50;99.90
12291;DHT22;6208;48.956;9.076;2023-04-25T09:51:15;9.40;99.90
12291;DHT22;6208;48.956;9.076;2023-04-25T09:53:59;9.30;99.90
12291;DHT22;6208;48.956;9.076;2023-04-25T09:56:45;9.30;99.90
12291;DHT22;6208;48.956;9.076;2023-04-25T09:59:33;9.40;99.90
12291;DHT22;6208;48.956;9.076;2023-04-25T10:02:20;9.40;99.90
12291;DHT22;6208;48.956;9.076;2023-04-25T10:05:08;9.30;99.90
12291;DHT22;6208;48.956;9.076;2023-04-25T10:07:54;9.30;99.90
12291;DHT22;6208;48.956;9.076;2023-04-25T10:10:40;9.20;99.90
12291;DHT22;6208;48.956;9.076;2023-04-25T10:13:25;9.00;99.90
12291;DHT22;6208;48.956;9.076;2023-04-25T10:16:10;8.90;99.90
12291;DHT22;6208;48.956;9.076;2023-04-25T10:18:55;8.80;99.90
12291;DHT22;6208;48.956;9.076;2023-04-25T10:21:46;8.90;99.90
12291;DHT22;6208;48.956;9.076;2023-04-25T10:24:31;9.00;99.90
12291;DHT22;6208;48.956;9.076;2023-04-25T10:30:07;8.80;99.90
12291;DHT22;6208;48.956;9.076;2023-04-25T10:32:55;9.00;99.90
12291;DHT22;6208;48.956;9.076;2023-04-25T10:35:39;8.60;99.90
12291;DHT22;6208;48.956;9.076;2023-04-25T10:38:26;8.60;99.90
12291;DHT22;6208;48.956;9.076;2023-04-25T10:41:11;8.70;99.90
12291;DHT22;6208;48.956;9.076;2023-04-25T10:44:04;8.80;99.90
12291;DHT22;6208;48.956;9.076;2023-04-25T10:46:48;8.80;99.90
12291;DHT22;6208;48.956;9.076;2023-04-25T10:49:36;8.90;99.90
12291;DHT22;6208;48.956;9.076;2023-04-25T10:52:26;8.90;99.90
12291;DHT22;6208;48.956;9.076;2023-04-25T10:55:13;9.30;99.90
12291;DHT22;6208;48.956;9.076;2023-04-25T10:57:57;9.20;99.90
12291;DHT22;6208;48.956;9.076;2023-04-25T11:00:41;9.20;99.90
12291;DHT22;6208;48.956;9.076;2023-04-25T11:03:25;9.20;99.90
12291;DHT22;6208;48.956;9.076;2023-04-25T11:09:01;9.10;99.90
12291;DHT22;6208;48.956;9.076;2023-04-25T11:11:54;9.00;99.90
12291;DHT22;6208;48.956;9.076;2023-04-25T11:14:39;10.70;99.90
12291;DHT22;6208;48.956;9.076;2023-04-25T11:17:25;8.90;99.90
12291;DHT22;6208;48.956;9.076;2023-04-25T11:20:09;9.00;99.90
12291;DHT22;6208;48.956;9.076;2023-04-25T11:22:58;8.90;99.90
12291;DHT22;6208;48.956;9.076;2023-04-25T11:25:44;9.00;99.90
12291;DHT22;6208;48.956;9.076;2023-04-25T11:28:29;8.70;99.90
12291;DHT22;6208;48.956;9.076;2023-04-25T11:31:14;8.70;99.90
12291;DHT22;6208;48.956;9.076;2023-04-25T11:33:58;8.60;99.90
12291;DHT22;6208;48.956;9.076;2023-04-25T11:36:43;8.70;99.90
12291;DHT22;6208;48.956;9.076;2023-04-25T11:39:29;8.80;99.90
12291;DHT22;6208;48.956;9.076;2023-04-25T11:42:14;8.90;99.90
12291;DHT22;6208;48.956;9.076;2023-04-25T11:44:59;8.90;99.90
12291;DHT22;6208;48.956;9.076;2023-04-25T11:47:43;8.90;99.90
12291;DHT22;6208;48.956;9.076;2023-04-25T11:50:28;10.10;99.90
12291;DHT22;6208;48.956;9.076;2023-04-25T11:53:13;9.00;99.90
12291;DHT22;6208;48.956;9.076;2023-04-25T11:55:57;9.00;99.90
12291;DHT22;6208;48.956;9.076;2023-04-25T11:58:55;8.80;99.90
12291;DHT22;6208;48.956;9.076;2023-04-25T12:01:48;8.90;99.90
12291;DHT22;6208;48.956;9.076;2023-04-25T12:04:32;9.10;99.90
12291;DHT22;6208;48.956;9.076;2023-04-25T12:07:16;9.00;99.90
12291;DHT22;6208;48.956;9.076;2023-04-25T12:10:07;9.00;99.90
12291;DHT22;6208;48.956;9.076;2023-04-25T12:12:52;9.30;99.90
12291;DHT22;6208;48.956;9.076;2023-04-25T12:15:40;9.30;99.90
12291;DHT22;6208;48.956;9.076;2023-04-25T12:18:25;10.00;99.90
12291;DHT22;6208;48.956;9.076;2023-04-25T12:21:12;9.60;99.90
12291;DHT22;6208;48.956;9.076;2023-04-25T12:23:56;9.50;99.90
12291;DHT22;6208;48.956;9.076;2023-04-25T12:29:54;9.80;99.90
12291;DHT22;6208;48.956;9.076;2023-04-25T12:32:38;10.00;99.90
12291;DHT22;6208;48.956;9.076;2023-04-25T12:35:22;10.00;99.90
12291;DHT22;6208;48.956;9.076;2023-04-25T12:38:06;9.70;99.90
12291;DHT22;6208;48.956;9.076;2023-04-25T12:40:51;9.60;99.90
12291;DHT22;6208;48.956;9.076;2023-04-25T12:43:35;9.60;99.90
12291;DHT22;6208;48.956;9.076;2023-04-25T12:46:19;9.80;99.90
12291;DHT22;6208;48.956;9.076;2023-04-25T12:49:04;9.80;99.90
12291;DHT22;6208;48.956;9.076;2023-04-25T12:51:48;9.60;99.90
12291;DHT22;6208;48.956;9.076;2023-04-25T12:54:33;10.00;99.90
12291;DHT22;6208;48.956;9.076;2023-04-25T12:57:17;10.00;99.90
12291;DHT22;6208;48.956;9.076;2023-04-25T13:00:01;10.20;99.90
12291;DHT22;6208;48.956;9.076;2023-04-25T13:02:45;10.10;99.90
12291;DHT22;6208;48.956;9.076;2023-04-25T13:05:33;12.60;99.90
12291;DHT22;6208;48.956;9.076;2023-04-25T13:08:17;10.00;99.90
12291;DHT22;6208;48.956;9.076;2023-04-25T13:11:01;10.20;99.90
12291;DHT22;6208;48.956;9.076;2023-04-25T13:13:45;10.20;99.90
12291;DHT22;6208;48.956;9.076;2023-04-25T13:16:29;10.30;99.90
12291;DHT22;6208;48.956;9.076;2023-04-25T13:19:14;10.30;99.90
12291;DHT22;6208;48.956;9.076;2023-04-25T13:21:57;10.40;99.90
12291;DHT22;6208;48.956;9.076;2023-04-25T13:24:43;10.30;99.90
12291;DHT22;6208;48.956;9.076;2023-04-25T13:27:27;10.20;99.90
12291;DHT22;6208;48.956;9.076;2023-04-25T13:30:11;10.10;99.90
12291;DHT22;6208;48.956;9.076;2023-04-25T13:32:55;10.10;99.90
12291;DHT22;6208;48.956;9.076;2023-04-25T13:35:41;9.90;99.90
12291;DHT22;6208;48.956;9.076;2023-04-25T13:38:26;9.70;99.90
12291;DHT22;6208;48.956;9.076;2023-04-25T13:41:10;10.00;99.90
12291;DHT22;6208;48.956;9.076;2023-04-25T13:43:58;10.40;99.90
12291;DHT22;6208;48.956;9.076;2023-04-25T13:46:43;10.40;99.90
12291;DHT22;6208;48.956;9.076;2023-04-25T13:49:28;10.50;99.90
12291;DHT22;6208;48.956;9.076;2023-04-25T13:52:12;10.50;99.90
12291;DHT22;6208;48.956;9.076;2023-04-25T13:54:56;10.60;99.90
12291;DHT22;6208;48.956;9.076;2023-04-25T13:57:40;10.30;99.90
12291;DHT22;6208;48.956;9.076;2023-04-25T14:00:24;10.30;99.90
12291;DHT22;6208;48.956;9.076;2023-04-25T14:03:08;10.40;99.90
12291;DHT22;6208;48.956;9.076;2023-04-25T14:05:52;10.40;99.90
12291;DHT22;6208;48.956;9.076;2023-04-25T14:08:37;10.40;99.90
12291;DHT22;6208;48.956;9.076;2023-04-25T14:11:21;10.70;99.90
12291;DHT22;6208;48.956;9.076;2023-04-25T14:14:05;10.60;99.90
12291;DHT22;6208;48.956;9.076;2023-04-25T14:16:50;10.60;99.90
12291;DHT22;6208;48.956;9.076;2023-04-25T14:19:35;10.50;99.90
12291;DHT22;6208;48.956;9.076;2023-04-25T14:22:21;10.80;99.90
12291;DHT22;6208;48.956;9.076;2023-04-25T14:25:08;10.60;99.90
12291;DHT22;6208;48.956;9.076;2023-04-25T14:27:53;10.60;99.90
12291;DHT22;6208;48.956;9.076;2023-04-25T14:30:37;10.50;99.90
12291;DHT22;6208;48.956;9.076;2023-04-25T14:33:22;10.50;99.90
12291;DHT22;6208;48.956;9.076;2023-04-25T14:36:09;9.00;99.90
12291;DHT22;6208;48.956;9.076;2023-04-25T14:38:54;10.60;99.90
12291;DHT22;6208;48.956;9.076;2023-04-25T14:41:39;10.80;99.90
12291;DHT22;6208;48.956;9.076;2023-04-25T14:44:23;10.80;99.90
12291;DHT22;6208;48.956;9.076;2023-04-25T14:47:07;11.20;99.90
12291;DHT22;6208;48.956;9.076;2023-04-25T14:49:51;11.30;99.90
12291;DHT22;6208;48.956;9.076;2023-04-25T14:52:37;11.90;99.90
12291;DHT22;6208;48.956;9.076;2023-04-25T14:55:22;12.30;99.90
12291;DHT22;6208;48.956;9.076;2023-04-25T14:58:06;12.20;99.90
12291;DHT22;6208;48.956;9.076;2023-04-25T15:00:50;11.70;99.90
12291;DHT22;6208;48.956;9.076;2023-04-25T15:03:35;11.50;99.90
12291;DHT22;6208;48.956;9.076;2023-04-25T15:06:19;11.50;99.90
12291;DHT22;6208;48.956;9.076;2023-04-25T15:09:03;12.00;99.90
12291;DHT22;6208;48.956;9.076;2023-04-25T15:11:47;11.80;99.90
12291;DHT22;6208;48.956;9.076;2023-04-25T15:14:31;12.10;99.90
12291;DHT22;6208;48.956;9.076;2023-04-25T15:17:15;12.10;99.90
12291;DHT22;6208;48.956;9.076;2023-04-25T15:19:59;12.00;99.90
12291;DHT22;6208;48.956;9.076;2023-04-25T15:22:44;11.90;99.90
12291;DHT22;6208;48.956;9.076;2023-04-25T15:25:32;12.30;99.90
12291;DHT22;6208;48.956;9.076;2023-04-25T15:28:16;12.30;99.90
12291;DHT22;6208;48.956;9.076;2023-04-25T15:31:01;12.40;99.40
12291;DHT22;6208;48.956;9.076;2023-04-25T15:33:45;12.30;98.70
12291;DHT22;6208;48.956;9.076;2023-04-25T15:36:29;12.30;99.20
12291;DHT22;6208;48.956;9.076;2023-04-25T15:52:59;12.60;99.90
12291;DHT22;6208;48.956;9.076;2023-04-25T16:12:12;12.10;99.90
12291;DHT22;6208;48.956;9.076;2023-04-25T16:17:42;12.00;97.80
12291;DHT22;6208;48.956;9.076;2023-04-25T16:25:58;12.10;99.60
12291;DHT22;6208;48.956;9.076;2023-04-25T16:28:42;12.10;99.90
12291;DHT22;6208;48.956;9.076;2023-04-25T16:36:56;12.20;99.90
12291;DHT22;6208;48.956;9.076;2023-04-25T16:45:11;11.60;99.90
12291;DHT22;6208;48.956;9.076;2023-04-25T16:47:56;11.50;99.90
12291;DHT22;6208;48.956;9.076;2023-04-25T16:56:09;11.40;99.90
12291;DHT22;6208;48.956;9.076;2023-04-25T16:58:54;11.40;99.90
12291;DHT22;6208;48.956;9.076;2023-04-25T17:01:38;11.80;99.90
12291;DHT22;6208;48.956;9.076;2023-04-25T17:09:52;10.50;99.90
12291;DHT22;6208;48.956;9.076;2023-04-25T17:15:20;9.80;99.90
12291;DHT22;6208;48.956;9.076;2023-04-25T17:18:05;9.60;99.90
12291;DHT22;6208;48.956;9.076;2023-04-25T17:20:49;9.80;99.90
12291;DHT22;6208;48.956;9.076;2023-04-25T17:23:33;9.10;99.90
12291;DHT22;6208;48.956;9.076;2023-04-25T17:26:18;9.60;99.90
12291;DHT22;6208;48.956;9.076;2023-04-25T17:29:02;9.50;99.90
12291;DHT22;6208;48.956;9.076;2023-04-25T17:31:47;9.70;99.90
12291;DHT22;6208;48.956;9.076;2023-04-25T17:34:31;9.90;99.90
12291;DHT22;6208;48.956;9.076;2023-04-25T17:37:15;10.50;99.90
12291;DHT22;6208;48.956;9.076;2023-04-25T17:40:00;10.30;99.90
12291;DHT22;6208;48.956;9.076;2023-04-25T17:42:45;10.20;99.90
12291;DHT22;6208;48.956;9.076;2023-04-25T17:45:29;10.00;99.90
12291;DHT22;6208;48.956;9.076;2023-04-25T17:48:17;10.00;99.90
12291;DHT22;6208;48.956;9.076;2023-04-25T17:51:02;10.80;99.90
12291;DHT22;6208;48.956;9.076;2023-04-25T17:53:50;10.10;99.90
12291;DHT22;6208;48.956;9.076;2023-04-25T17:56:36;10.30;99.90
12291;DHT22;6208;48.956;9.076;2023-04-25T17:59:21;10.10;99.90
12291;DHT22;6208;48.956;9.076;2023-04-25T18:02:05;10.10;99.90
12291;DHT22;6208;48.956;9.076;2023-04-25T18:04:48;10.00;99.90
12291;DHT22;6208;48.956;9.076;2023-04-25T18:07:35;10.50;99.90
12291;DHT22;6208;48.956;9.076;2023-04-25T18:10:20;10.20;99.90
12291;DHT22;6208;48.956;9.076;2023-04-25T18:13:04;10.20;99.90
12291;DHT22;6208;48.956;9.076;2023-04-25T18:15:48;10.20;99.90
12291;DHT22;6208;48.956;9.076;2023-04-25T18:18:34;10.20;99.90
12291;DHT22;6208;48.956;9.076;2023-04-25T18:21:19;10.20;99.90
12291;DHT22;6208;48.956;9.076;2023-04-25T18:24:05;10.10;99.90
12291;DHT22;6208;48.956;9.076;2023-04-25T18:26:49;10.10;99.90
12291;DHT22;6208;48.956;9.076;2023-04-25T18:29:34;10.10;99.90
12291;DHT22;6208;48.956;9.076;2023-04-25T18:32:20;10.10;99.90
12291;DHT22;6208;48.956;9.076;2023-04-25T18:35:05;10.00;99.90
12291;DHT22;6208;48.956;9.076;2023-04-25T18:37:49;10.00;99.90
12291;DHT22;6208;48.956;9.076;2023-04-25T18:40:34;9.90;99.90
12291;DHT22;6208;48.956;9.076;2023-04-25T18:43:19;10.20;99.90
12291;DHT22;6208;48.956;9.076;2023-04-25T18:46:03;10.00;99.90
12291;DHT22;6208;48.956;9.076;2023-04-25T18:48:48;9.90;99.90
12291;DHT22;6208;48.956;9.076;2023-04-25T18:51:33;9.90;99.90
12291;DHT22;6208;48.956;9.076;2023-04-25T18:54:17;9.90;99.90
12291;DHT22;6208;48.956;9.076;2023-04-25T18:57:01;9.90;99.90
12291;DHT22;6208;48.956;9.076;2023-04-25T18:59:46;9.90;99.90
12291;DHT22;6208;48.956;9.076;2023-04-25T19:02:32;9.90;99.90
12291;DHT22;6208;48.956;9.076;2023-04-25T19:05:17;9.90;99.90